Time;durP1;ratioP1;P1;durP2;ratioP2;P2;SDS_P1;SDS_P2;PMS_P1;PMS_P2;Temp;Humidity;BMP_temperature;BMP_pressure;BME280_temperature;BME280_humidity;BME280_pressure;Samples;Min_cycle;Max_cycle;Signal;HPM_P1;HPM_P2
2022/09/02 00:01:36;;;;;;;0.00;0.00;;;;;;;;;;5015916;28;20031;-79
2022/09/02 00:04:14;;;;;;;0.00;0.00;;;;;;;;;;4992728;28;20503;-79
2022/09/02 00:06:41;;;;;;;0.00;0.00;;;;;;;;;;4987999;28;20030;-79
2022/09/02 00:09:08;;;;;;;0.00;0.00;;;;;;;;;;4989048;28;20394;-79
2022/09/02 00:11:36;;;;;;;0.00;0.00;;;;;;;;;;4996399;28;20060;-79
2022/09/02 00:14:04;;;;;;;0.00;0.00;;;;;;;;;;5042778;28;20058;-79
2022/09/02 00:16:32;;;;;;;0.00;0.00;;;;;;;;;;4986265;28;20029;-78
2022/09/02 00:18:59;;;;;;;0.00;0.00;;;;;;;;;;5004683;28;20053;-79
2022/09/02 00:21:25;;;;;;;0.00;0.00;;;;;;;;;;4984881;28;20072;-79
2022/09/02 00:23:52;;;;;;;0.00;0.00;;;;;;;;;;4986869;28;20037;-79
2022/09/02 00:26:19;;;;;;;0.00;0.00;;;;;;;;;;4992602;28;20397;-78
2022/09/02 00:28:46;;;;;;;0.00;0.00;;;;;;;;;;4980414;28;20018;-78
2022/09/02 00:31:13;;;;;;;0.00;0.00;;;;;;;;;;4984261;28;20026;-79
2022/09/02 00:33:39;;;;;;;0.00;0.00;;;;;;;;;;5007740;28;20025;-79
2022/09/02 00:36:06;;;;;;;0.00;0.00;;;;;;;;;;4990405;28;20030;-79
2022/09/02 00:38:35;;;;;;;0.05;0.05;;;;;;;;;;4989155;28;20034;-79
2022/09/02 00:41:04;;;;;;;0.00;0.00;;;;;;;;;;4996426;28;20027;-78
2022/09/02 00:43:49;;;;;;;0.00;0.00;;;;;;;;;;5018450;28;20367;-77
2022/09/02 00:46:17;;;;;;;0.00;0.00;;;;;;;;;;5010768;28;20121;-78
2022/09/02 00:48:47;;;;;;;5.00;4.70;;;;;;;;;;5043311;28;20411;-78
2022/09/02 00:51:14;;;;;;;0.00;0.00;;;;;;;;;;5036804;28;20110;-78
2022/09/02 00:53:43;;;;;;;0.00;0.00;;;;;;;;;;5018216;28;20046;-78
2022/09/02 00:56:14;;;;;;;0.80;0.80;;;;;;;;;;5004927;28;20022;-79
2022/09/02 00:58:42;;;;;;;0.00;0.00;;;;;;;;;;4986539;28;20039;-79
2022/09/02 01:01:10;;;;;;;0.00;0.00;;;;;;;;;;5010692;28;20465;-78
2022/09/02 01:03:37;;;;;;;0.00;0.00;;;;;;;;;;4998024;28;20031;-78
2022/09/02 01:06:03;;;;;;;0.00;0.00;;;;;;;;;;4992343;28;20032;-78
2022/09/02 01:08:33;;;;;;;0.00;0.00;;;;;;;;;;5001405;28;20031;-79
2022/09/02 01:11:01;;;;;;;0.10;0.10;;;;;;;;;;5027477;28;20040;-79
2022/09/02 01:13:29;;;;;;;0.00;0.00;;;;;;;;;;5007211;28;20035;-79
2022/09/02 01:15:57;;;;;;;0.00;0.00;;;;;;;;;;5010030;28;20046;-79
2022/09/02 01:18:28;;;;;;;0.00;0.00;;;;;;;;;;5020901;28;20042;-80
2022/09/02 01:20:57;;;;;;;0.00;0.00;;;;;;;;;;4997273;28;20387;-80
2022/09/02 01:23:23;;;;;;;0.35;0.35;;;;;;;;;;5008142;28;20069;-80
2022/09/02 01:25:49;;;;;;;0.00;0.00;;;;;;;;;;5016148;28;20068;-81
2022/09/02 01:28:17;;;;;;;0.10;0.10;;;;;;;;;;5018795;28;20033;-80
2022/09/02 01:30:46;;;;;;;0.00;0.00;;;;;;;;;;5014246;28;20372;-81
2022/09/02 01:33:12;;;;;;;0.00;0.00;;;;;;;;;;4992469;28;20495;-80
2022/09/02 01:35:39;;;;;;;0.00;0.00;;;;;;;;;;4988076;28;20119;-80
2022/09/02 01:38:06;;;;;;;0.50;0.47;;;;;;;;;;5017451;28;20112;-80
2022/09/02 01:40:32;;;;;;;0.00;0.00;;;;;;;;;;5020280;28;20113;-80
2022/09/02 01:43:06;;;;;;;0.00;0.00;;;;;;;;;;5002367;28;20022;-81
2022/09/02 01:45:34;;;;;;;0.00;0.00;;;;;;;;;;5031584;28;20042;-81
2022/09/02 01:48:01;;;;;;;0.00;0.00;;;;;;;;;;5046162;28;20225;-80
2022/09/02 01:50:27;;;;;;;0.00;0.00;;;;;;;;;;5030195;28;20024;-81
2022/09/02 01:52:54;;;;;;;0.00;0.00;;;;;;;;;;5032066;28;20052;-80
2022/09/02 01:55:21;;;;;;;0.35;0.35;;;;;;;;;;4995386;28;20369;-80
2022/09/02 01:57:47;;;;;;;0.00;0.00;;;;;;;;;;5018399;28;20031;-80
2022/09/02 02:00:15;;;;;;;0.00;0.00;;;;;;;;;;4997652;28;20030;-81
2022/09/02 02:02:41;;;;;;;1.23;1.17;;;;;;;;;;4998608;28;20030;-79
2022/09/02 02:05:08;;;;;;;0.00;0.00;;;;;;;;;;4990148;28;20022;-81
2022/09/02 02:07:34;;;;;;;0.00;0.00;;;;;;;;;;5004286;28;20038;-80
2022/09/02 02:10:00;;;;;;;0.00;0.00;;;;;;;;;;5032506;28;20030;-81
2022/09/02 02:12:27;;;;;;;2.22;2.13;;;;;;;;;;5007133;28;20365;-81
2022/09/02 02:14:56;;;;;;;1.15;1.15;;;;;;;;;;5036378;28;20036;-81
2022/09/02 02:17:22;;;;;;;13.73;1.13;;;;;;;;;;5003292;28;20026;-80
2022/09/02 02:19:48;;;;;;;0.10;0.10;;;;;;;;;;4983560;28;20053;-81
2022/09/02 02:22:16;;;;;;;0.22;0.22;;;;;;;;;;4986664;28;20030;-81
2022/09/02 02:24:42;;;;;;;4.43;3.35;;;;;;;;;;5000768;28;20032;-81
2022/09/02 02:27:08;;;;;;;20.25;11.00;;;;;;;;;;4986949;28;20114;-81
2022/09/02 02:29:35;;;;;;;26.40;16.65;;;;;;;;;;4999146;28;20111;-80
2022/09/02 02:32:01;;;;;;;0.55;0.55;;;;;;;;;;4995071;28;20097;-80
2022/09/02 02:34:28;;;;;;;3.80;3.60;;;;;;;;;;5012848;28;20095;-81
2022/09/02 02:36:54;;;;;;;4.70;4.38;;;;;;;;;;5015050;28;20024;-81
2022/09/02 02:39:20;;;;;;;0.00;0.00;;;;;;;;;;5053858;28;20034;-80
2022/09/02 02:41:47;;;;;;;0.13;0.13;;;;;;;;;;5003245;28;20407;-80
2022/09/02 02:44:13;;;;;;;0.00;0.00;;;;;;;;;;4994090;28;20042;-81
2022/09/02 02:46:40;;;;;;;6.22;2.08;;;;;;;;;;4990607;28;20018;-81
2022/09/02 02:49:06;;;;;;;0.00;0.00;;;;;;;;;;4981367;28;20030;-80
2022/09/02 02:51:33;;;;;;;0.08;0.08;;;;;;;;;;4984238;28;20049;-81
2022/09/02 02:54:00;;;;;;;0.45;0.45;;;;;;;;;;5043510;28;20088;-81
2022/09/02 02:56:27;;;;;;;0.38;0.38;;;;;;;;;;5016072;28;20026;-80
2022/09/02 02:58:54;;;;;;;0.00;0.00;;;;;;;;;;4989479;28;20034;-80
2022/09/02 03:01:20;;;;;;;0.10;0.10;;;;;;;;;;4988843;28;20034;-80
2022/09/02 03:03:47;;;;;;;0.10;0.10;;;;;;;;;;4993001;28;20380;-79
2022/09/02 03:06:13;;;;;;;0.88;0.88;;;;;;;;;;4988393;28;20038;-79
2022/09/02 03:08:52;;;;;;;1.23;0.98;;;;;;;;;;5001674;28;20030;-82
2022/09/02 03:11:20;;;;;;;0.28;0.22;;;;;;;;;;4993107;28;20030;-79
2022/09/02 03:13:47;;;;;;;0.43;0.43;;;;;;;;;;4996054;28;20117;-80
2022/09/02 03:16:13;;;;;;;1.88;1.83;;;;;;;;;;5004171;28;20023;-80
2022/09/02 03:18:40;;;;;;;0.00;0.00;;;;;;;;;;4993431;28;20034;-81
2022/09/02 03:21:08;;;;;;;0.10;0.10;;;;;;;;;;4996230;28;20377;-81
2022/09/02 03:23:34;;;;;;;0.00;0.00;;;;;;;;;;5010881;28;20027;-80
2022/09/02 03:26:01;;;;;;;0.00;0.00;;;;;;;;;;4996900;28;20558;-80
2022/09/02 03:28:27;;;;;;;0.10;0.10;;;;;;;;;;5002706;28;20030;-81
2022/09/02 03:30:54;;;;;;;2.30;2.10;;;;;;;;;;5014798;28;20034;-80
2022/09/02 03:33:20;;;;;;;0.45;0.45;;;;;;;;;;4994958;28;20026;-80
2022/09/02 03:35:47;;;;;;;0.60;0.60;;;;;;;;;;5008542;28;20029;-80
2022/09/02 03:38:13;;;;;;;0.20;0.20;;;;;;;;;;5015990;28;20051;-80
2022/09/02 03:40:41;;;;;;;8.20;3.00;;;;;;;;;;5016611;28;20055;-80
2022/09/02 03:43:08;;;;;;;0.00;0.00;;;;;;;;;;5014244;28;20024;-81
2022/09/02 03:45:34;;;;;;;0.10;0.10;;;;;;;;;;5027427;28;20042;-80
2022/09/02 03:48:00;;;;;;;8.48;3.90;;;;;;;;;;5008796;28;20371;-81
2022/09/02 03:50:29;;;;;;;0.80;0.80;;;;;;;;;;5010599;28;20110;-79
2022/09/02 03:52:55;;;;;;;0.80;0.80;;;;;;;;;;5002634;28;20053;-80
2022/09/02 03:55:23;;;;;;;0.00;0.00;;;;;;;;;;5021165;28;20026;-79
2022/09/02 03:57:49;;;;;;;0.00;0.00;;;;;;;;;;5010920;28;20026;-80
2022/09/02 04:00:17;;;;;;;0.50;0.43;;;;;;;;;;4994684;28;20033;-80
2022/09/02 04:02:43;;;;;;;0.00;0.00;;;;;;;;;;5029915;28;20037;-79
2022/09/02 04:05:11;;;;;;;0.00;0.00;;;;;;;;;;5001776;28;20037;-80
2022/09/02 04:07:38;;;;;;;0.10;0.10;;;;;;;;;;5003042;28;20464;-80
2022/09/02 04:10:08;;;;;;;0.00;0.00;;;;;;;;;;5003934;28;20038;-82
2022/09/02 04:12:35;;;;;;;0.05;0.05;;;;;;;;;;5000094;28;20035;-81
2022/09/02 04:15:03;;;;;;;1.33;0.73;;;;;;;;;;5005551;28;20032;-81
2022/09/02 04:17:29;;;;;;;0.00;0.00;;;;;;;;;;5006772;28;20116;-81
2022/09/02 04:19:56;;;;;;;0.10;0.10;;;;;;;;;;4984692;28;20058;-81
2022/09/02 04:22:22;;;;;;;0.00;0.00;;;;;;;;;;5002918;28;20020;-81
2022/09/02 04:24:49;;;;;;;0.40;0.40;;;;;;;;;;5002124;28;20054;-81
2022/09/02 04:27:15;;;;;;;0.15;0.08;;;;;;;;;;4990631;28;20458;-80
2022/09/02 04:29:41;;;;;;;0.10;0.10;;;;;;;;;;4986266;28;20448;-80
2022/09/02 04:32:08;;;;;;;6.63;6.22;;;;;;;;;;4997691;28;20532;-81
2022/09/02 04:34:34;;;;;;;0.47;0.47;;;;;;;;;;4990192;28;20400;-79
2022/09/02 04:37:00;;;;;;;0.10;0.10;;;;;;;;;;4990218;28;20031;-80
2022/09/02 04:39:27;;;;;;;0.20;0.20;;;;;;;;;;4979741;28;20030;-80
2022/09/02 04:41:53;;;;;;;1.02;1.02;;;;;;;;;;4984509;28;20433;-80
2022/09/02 04:44:20;;;;;;;0.00;0.00;;;;;;;;;;4983593;28;20018;-80
2022/09/02 04:46:47;;;;;;;0.00;0.00;;;;;;;;;;5003094;28;20096;-81
2022/09/02 04:49:13;;;;;;;1.58;1.48;;;;;;;;;;4999833;28;20042;-80
2022/09/02 04:51:40;;;;;;;0.10;0.10;;;;;;;;;;4996424;28;20022;-80
2022/09/02 04:54:06;;;;;;;0.00;0.00;;;;;;;;;;4994620;28;20079;-79
2022/09/02 04:56:33;;;;;;;0.30;0.30;;;;;;;;;;4985686;28;20091;-82
2022/09/02 04:58:59;;;;;;;0.00;0.00;;;;;;;;;;4992331;28;20109;-82
2022/09/02 05:01:34;;;;;;;8.50;7.97;;;;;;;;;;5015215;28;20042;-81
2022/09/02 05:04:01;;;;;;;10.13;3.15;;;;;;;;;;4994679;28;20472;-79
2022/09/02 05:06:29;;;;;;;0.55;0.55;;;;;;;;;;4978234;28;20080;-80
2022/09/02 05:08:56;;;;;;;2.40;0.45;;;;;;;;;;4995725;28;20041;-80
2022/09/02 05:11:27;;;;;;;0.75;0.43;;;;;;;;;;4994453;28;20024;-81
2022/09/02 05:13:54;;;;;;;0.10;0.00;;;;;;;;;;4988575;28;20039;-80
2022/09/02 05:16:22;;;;;;;0.00;0.00;;;;;;;;;;4983052;28;20050;-80
2022/09/02 05:18:50;;;;;;;5.85;5.57;;;;;;;;;;4991554;28;20045;-80
2022/09/02 05:21:16;;;;;;;0.22;0.15;;;;;;;;;;4994914;28;20030;-81
2022/09/02 05:23:43;;;;;;;0.45;0.45;;;;;;;;;;4980397;28;20031;-80
2022/09/02 05:26:11;;;;;;;0.45;0.45;;;;;;;;;;4977922;28;20118;-81
2022/09/02 05:28:38;;;;;;;0.32;0.20;;;;;;;;;;4980443;28;20038;-80
2022/09/02 05:31:06;;;;;;;0.45;0.45;;;;;;;;;;4985180;28;20876;-80
2022/09/02 05:33:36;;;;;;;1.10;1.00;;;;;;;;;;4994354;28;20019;-81
2022/09/02 05:36:03;;;;;;;0.08;0.08;;;;;;;;;;5003319;28;20029;-81
2022/09/02 05:38:30;;;;;;;0.00;0.00;;;;;;;;;;4993056;28;20121;-81
2022/09/02 05:40:58;;;;;;;2.97;2.70;;;;;;;;;;4997867;28;20026;-81
2022/09/02 05:43:24;;;;;;;0.32;0.20;;;;;;;;;;4980974;28;20022;-80
2022/09/02 05:45:51;;;;;;;0.00;0.00;;;;;;;;;;4991405;28;20501;-81
2022/09/02 05:51:05;;;;;;;0.10;0.10;;;;;;;;;;5013533;28;21433;-81
2022/09/02 05:53:32;;;;;;;7.75;6.13;;;;;;;;;;4993982;28;20042;-81
2022/09/02 05:56:04;;;;;;;1.92;0.90;;;;;;;;;;4998962;28;20387;-80
2022/09/02 05:58:31;;;;;;;2.70;2.60;;;;;;;;;;4990660;28;20162;-81
2022/09/02 06:00:58;;;;;;;0.55;0.20;;;;;;;;;;4999880;28;20039;-81
2022/09/02 06:03:24;;;;;;;0.00;0.00;;;;;;;;;;4988312;28;20043;-81
2022/09/02 06:05:55;;;;;;;0.00;0.00;;;;;;;;;;4980244;28;20030;-81
2022/09/02 06:08:21;;;;;;;9.93;3.05;;;;;;;;;;4985286;28;20501;-80
2022/09/02 06:10:47;;;;;;;0.50;0.22;;;;;;;;;;4998526;28;20119;-81
2022/09/02 06:13:14;;;;;;;0.55;0.47;;;;;;;;;;4982027;28;20468;-82
2022/09/02 06:15:42;;;;;;;0.00;0.00;;;;;;;;;;4979807;28;20041;-83
2022/09/02 06:18:10;;;;;;;1.58;0.77;;;;;;;;;;4981490;28;20037;-80
2022/09/02 06:20:47;;;;;;;0.20;0.13;;;;;;;;;;4989704;28;21242;-82
2022/09/02 06:23:14;;;;;;;0.05;0.05;;;;;;;;;;4999739;28;20485;-82
2022/09/02 06:25:42;;;;;;;0.00;0.00;;;;;;;;;;5002410;28;20026;-82
2022/09/02 06:28:08;;;;;;;0.00;0.00;;;;;;;;;;4996440;28;20028;-81
2022/09/02 06:30:35;;;;;;;0.00;0.00;;;;;;;;;;5001618;28;20062;-83
2022/09/02 06:33:02;;;;;;;0.63;0.63;;;;;;;;;;4991679;28;20018;-83
2022/09/02 06:35:33;;;;;;;0.65;0.52;;;;;;;;;;4984043;28;20418;-81
2022/09/02 06:37:59;;;;;;;0.32;0.32;;;;;;;;;;4997290;28;20038;-84
2022/09/02 06:40:26;;;;;;;0.35;0.35;;;;;;;;;;5003696;28;20024;-82
2022/09/02 06:42:53;;;;;;;1.27;0.22;;;;;;;;;;4999700;28;20030;-83
2022/09/02 06:45:20;;;;;;;0.80;0.80;;;;;;;;;;5000807;28;20479;-82
2022/09/02 06:47:46;;;;;;;0.85;0.45;;;;;;;;;;4997531;28;20540;-82
2022/09/02 06:50:13;;;;;;;0.13;0.13;;;;;;;;;;4982429;28;20030;-84
2022/09/02 06:52:39;;;;;;;0.00;0.00;;;;;;;;;;4996868;28;20034;-83
2022/09/02 06:55:06;;;;;;;0.03;0.03;;;;;;;;;;4991590;28;20377;-82
2022/09/02 06:57:32;;;;;;;1.42;1.33;;;;;;;;;;4994547;28;20026;-81
2022/09/02 06:59:59;;;;;;;13.35;10.98;;;;;;;;;;5021904;28;20370;-84
2022/09/02 07:02:25;;;;;;;2.50;2.30;;;;;;;;;;5048412;28;20153;-83
2022/09/02 07:05:14;;;;;;;2.00;0.35;;;;;;;;;;4989384;28;20045;-83
2022/09/02 07:07:42;;;;;;;0.60;0.28;;;;;;;;;;4992978;28;20028;-82
2022/09/02 07:10:10;;;;;;;0.08;0.08;;;;;;;;;;5003199;28;20016;-82
2022/09/02 07:12:37;;;;;;;1.50;1.35;;;;;;;;;;5001747;28;20576;-82
2022/09/02 07:15:04;;;;;;;0.50;0.10;;;;;;;;;;4988875;28;20032;-82
2022/09/02 07:17:30;;;;;;;1.35;1.25;;;;;;;;;;4990936;28;20702;-83
2022/09/02 07:19:59;;;;;;;5.18;2.05;;;;;;;;;;5003011;28;20050;-82
2022/09/02 07:22:28;;;;;;;8.27;7.30;;;;;;;;;;5005682;28;20038;-82
2022/09/02 07:24:54;;;;;;;0.08;0.08;;;;;;;;;;4990368;28;20545;-82
2022/09/02 07:27:21;;;;;;;2.97;2.00;;;;;;;;;;5006750;28;20027;-82
2022/09/02 07:29:47;;;;;;;0.00;0.00;;;;;;;;;;4988416;28;20072;-83
2022/09/02 07:32:18;;;;;;;30.85;28.13;;;;;;;;;;4991504;28;20054;-82
2022/09/02 07:34:44;;;;;;;1.27;1.27;;;;;;;;;;4994627;28;20041;-81
2022/09/02 07:37:11;;;;;;;0.50;0.50;;;;;;;;;;4987147;28;20027;-82
2022/09/02 07:39:37;;;;;;;4.45;2.42;;;;;;;;;;4981917;28;20166;-83
2022/09/02 07:42:04;;;;;;;5.72;3.50;;;;;;;;;;4989639;28;20024;-82
2022/09/02 07:44:31;;;;;;;3.78;3.47;;;;;;;;;;4983578;28;20085;-81
2022/09/02 07:46:57;;;;;;;1.98;0.73;;;;;;;;;;4979444;28;20103;-81
2022/09/02 07:49:24;;;;;;;0.38;0.35;;;;;;;;;;4983830;28;20038;-81
2022/09/02 07:51:50;;;;;;;4.00;0.77;;;;;;;;;;5001070;28;20050;-82
2022/09/02 07:54:19;;;;;;;4.78;4.25;;;;;;;;;;4998154;28;20046;-80
2022/09/02 07:56:45;;;;;;;9.90;4.20;;;;;;;;;;4990437;28;20250;-81
2022/09/02 07:59:12;;;;;;;0.15;0.15;;;;;;;;;;4977365;28;20535;-82
2022/09/02 08:01:38;;;;;;;0.17;0.10;;;;;;;;;;4989194;28;20030;-80
2022/09/02 08:04:05;;;;;;;3.83;1.63;;;;;;;;;;4996112;28;20033;-80
2022/09/02 08:06:32;;;;;;;2.85;1.63;;;;;;;;;;4982730;28;20060;-82
2022/09/02 08:08:59;;;;;;;0.35;0.35;;;;;;;;;;4985318;28;20448;-80
2022/09/02 08:11:25;;;;;;;0.17;0.17;;;;;;;;;;4992717;28;20141;-82
2022/09/02 08:13:52;;;;;;;2.63;1.15;;;;;;;;;;5007549;28;20457;-82
2022/09/02 08:16:18;;;;;;;5.93;1.75;;;;;;;;;;4999302;28;20029;-83
2022/09/02 08:18:45;;;;;;;1.83;1.73;;;;;;;;;;4983055;28;20038;-82
2022/09/02 08:21:12;;;;;;;0.00;0.00;;;;;;;;;;4996817;28;20030;-80
2022/09/02 08:23:39;;;;;;;0.65;0.22;;;;;;;;;;5001586;28;20024;-81
2022/09/02 08:26:06;;;;;;;0.68;0.28;;;;;;;;;;4993735;28;20061;-80
2022/09/02 08:28:32;;;;;;;10.05;0.85;;;;;;;;;;4982457;28;20034;-82
2022/09/02 08:30:59;;;;;;;0.35;0.35;;;;;;;;;;4985474;28;20524;-81
2022/09/02 08:33:25;;;;;;;0.00;0.00;;;;;;;;;;4987897;28;20084;-81
2022/09/02 08:35:52;;;;;;;2.17;0.80;;;;;;;;;;4988501;28;20042;-82
2022/09/02 08:38:20;;;;;;;1.05;0.93;;;;;;;;;;5038772;28;20126;-79
2022/09/02 08:40:47;;;;;;;0.00;0.00;;;;;;;;;;4976027;28;20030;-80
2022/09/02 08:43:24;;;;;;;0.03;0.03;;;;;;;;;;4981670;28;20038;-80
2022/09/02 08:45:53;;;;;;;0.10;0.10;;;;;;;;;;4987863;28;20469;-80
2022/09/02 08:48:32;;;;;;;2.35;0.65;;;;;;;;;;4983230;28;20037;-79
2022/09/02 08:51:03;;;;;;;0.10;0.10;;;;;;;;;;4988414;28;20469;-80
2022/09/02 08:53:36;;;;;;;0.28;0.13;;;;;;;;;;4965882;28;20453;-80
2022/09/02 08:56:04;;;;;;;0.00;0.00;;;;;;;;;;4976120;28;20022;-80
2022/09/02 08:58:40;;;;;;;0.00;0.00;;;;;;;;;;4982268;28;20064;-80
2022/09/02 09:01:18;;;;;;;0.00;0.00;;;;;;;;;;4980064;28;20038;-80
2022/09/02 09:04:02;;;;;;;0.60;0.60;;;;;;;;;;4980986;28;20340;-80
2022/09/02 09:06:28;;;;;;;0.00;0.00;;;;;;;;;;4978000;28;20030;-79
2022/09/02 09:09:17;;;;;;;14.45;0.40;;;;;;;;;;4990678;28;20117;-78
2022/09/02 09:11:49;;;;;;;0.00;0.00;;;;;;;;;;5047710;28;20023;-78
2022/09/02 09:14:45;;;;;;;0.20;0.10;;;;;;;;;;4993677;28;20948;-78
2022/09/02 09:17:20;;;;;;;0.00;0.00;;;;;;;;;;5007000;28;20455;-78
2022/09/02 09:19:52;;;;;;;0.00;0.00;;;;;;;;;;5013208;28;20729;-78
2022/09/02 09:22:20;;;;;;;0.00;0.00;;;;;;;;;;5013866;28;20504;-79
2022/09/02 09:24:50;;;;;;;0.00;0.00;;;;;;;;;;4994892;28;20041;-78
2022/09/02 09:27:18;;;;;;;0.00;0.00;;;;;;;;;;5008787;28;20034;-79
2022/09/02 09:29:45;;;;;;;0.00;0.00;;;;;;;;;;5008484;28;21495;-79
2022/09/02 09:32:20;;;;;;;0.22;0.10;;;;;;;;;;4994893;28;20117;-79
2022/09/02 09:34:55;;;;;;;0.30;0.17;;;;;;;;;;4992834;28;20471;-79
2022/09/02 09:37:48;;;;;;;0.00;0.00;;;;;;;;;;4991116;28;20097;-79
2022/09/02 09:40:19;;;;;;;0.00;0.00;;;;;;;;;;5002612;28;20359;-78
2022/09/02 09:42:46;;;;;;;0.00;0.00;;;;;;;;;;4998369;28;20023;-80
2022/09/02 09:45:15;;;;;;;0.00;0.00;;;;;;;;;;4993804;28;20508;-77
2022/09/02 09:47:42;;;;;;;0.20;0.17;;;;;;;;;;4987021;28;20042;-80
2022/09/02 09:50:13;;;;;;;0.22;0.22;;;;;;;;;;4984180;28;20191;-78
2022/09/02 09:52:39;;;;;;;6.93;2.50;;;;;;;;;;5064830;28;20630;-78
2022/09/02 09:55:12;;;;;;;0.00;0.00;;;;;;;;;;4996842;28;20463;-79
2022/09/02 09:57:40;;;;;;;1.20;1.17;;;;;;;;;;4992016;28;20039;-79
2022/09/02 10:00:18;;;;;;;0.45;0.00;;;;;;;;;;4999699;28;20508;-78
2022/09/02 10:02:49;;;;;;;0.00;0.00;;;;;;;;;;4986345;28;20088;-78
2022/09/02 10:05:18;;;;;;;0.30;0.17;;;;;;;;;;4989311;28;20041;-79
2022/09/02 10:07:53;;;;;;;0.10;0.10;;;;;;;;;;4986391;28;20034;-79
2022/09/02 10:10:23;;;;;;;2.67;2.47;;;;;;;;;;4983301;28;20018;-79
2022/09/02 10:12:51;;;;;;;0.10;0.10;;;;;;;;;;4982400;28;20124;-79
2022/09/02 10:15:33;;;;;;;1.00;0.60;;;;;;;;;;4980093;28;20145;-79
2022/09/02 10:18:04;;;;;;;0.00;0.00;;;;;;;;;;4987108;28;20030;-79
2022/09/02 10:20:30;;;;;;;0.10;0.10;;;;;;;;;;4991613;28;20061;-80
2022/09/02 10:23:03;;;;;;;0.17;0.17;;;;;;;;;;4999135;28;20551;-78
2022/09/02 10:25:41;;;;;;;0.43;0.10;;;;;;;;;;5002588;28;20625;-79
2022/09/02 10:28:17;;;;;;;0.13;0.13;;;;;;;;;;4989255;28;20030;-79
2022/09/02 10:31:00;;;;;;;0.00;0.00;;;;;;;;;;4992839;28;20117;-79
2022/09/02 10:33:26;;;;;;;0.00;0.00;;;;;;;;;;4988358;28;20051;-79
2022/09/02 10:36:27;;;;;;;0.00;0.00;;;;;;;;;;4994363;28;20493;-80
2022/09/02 10:38:54;;;;;;;0.00;0.00;;;;;;;;;;4999005;28;20104;-80
2022/09/02 10:41:41;;;;;;;0.00;0.00;;;;;;;;;;4990669;28;20030;-81
2022/09/02 10:44:18;;;;;;;0.10;0.10;;;;;;;;;;4982923;28;20485;-79
2022/09/02 10:46:53;;;;;;;0.00;0.00;;;;;;;;;;4988696;28;20038;-79
2022/09/02 10:49:43;;;;;;;0.00;0.00;;;;;;;;;;4991323;28;20697;-80
2022/09/02 10:52:09;;;;;;;0.00;0.00;;;;;;;;;;4982784;28;20095;-80
2022/09/02 10:54:35;;;;;;;0.20;0.15;;;;;;;;;;4982323;28;20039;-80
2022/09/02 10:57:18;;;;;;;0.00;0.00;;;;;;;;;;4993864;28;20126;-80
2022/09/02 10:59:47;;;;;;;0.00;0.00;;;;;;;;;;5002742;28;20052;-81
2022/09/02 11:02:20;;;;;;;0.08;0.08;;;;;;;;;;4989023;28;20113;-80
2022/09/02 11:04:50;;;;;;;0.38;0.38;;;;;;;;;;4990766;28;20396;-80
2022/09/02 11:07:21;;;;;;;0.00;0.00;;;;;;;;;;4980715;28;20027;-81
2022/09/02 11:09:51;;;;;;;0.08;0.08;;;;;;;;;;4991737;28;20038;-80
2022/09/02 11:12:17;;;;;;;0.05;0.05;;;;;;;;;;4983676;28;20030;-80
2022/09/02 11:14:43;;;;;;;0.30;0.30;;;;;;;;;;4994884;28;20485;-80
2022/09/02 11:17:25;;;;;;;0.00;0.00;;;;;;;;;;4985277;28;20031;-79
2022/09/02 11:20:04;;;;;;;0.30;0.30;;;;;;;;;;4988358;28;20129;-81
2022/09/02 11:22:38;;;;;;;0.00;0.00;;;;;;;;;;4992050;28;20053;-80
2022/09/02 11:25:12;;;;;;;0.00;0.00;;;;;;;;;;4999784;28;20044;-79
2022/09/02 11:27:39;;;;;;;0.95;0.95;;;;;;;;;;4987041;28;20034;-80
2022/09/02 11:30:08;;;;;;;0.05;0.05;;;;;;;;;;5020373;28;20026;-80
2022/09/02 11:32:37;;;;;;;0.03;0.03;;;;;;;;;;4989411;28;20091;-80
2022/09/02 11:35:08;;;;;;;3.72;3.00;;;;;;;;;;4996009;28;20083;-80
2022/09/02 11:37:39;;;;;;;0.00;0.00;;;;;;;;;;4988179;28;20123;-80
2022/09/02 11:40:11;;;;;;;0.40;0.35;;;;;;;;;;4991171;28;20014;-79
2022/09/02 11:42:44;;;;;;;0.00;0.00;;;;;;;;;;4996151;28;20026;-80
2022/09/02 11:45:23;;;;;;;0.00;0.00;;;;;;;;;;4992313;28;20016;-79
2022/09/02 11:48:19;;;;;;;0.00;0.00;;;;;;;;;;4984283;28;20035;-81
2022/09/02 11:51:00;;;;;;;0.00;0.00;;;;;;;;;;5003576;28;20430;-79
2022/09/02 11:53:29;;;;;;;0.00;0.00;;;;;;;;;;4981388;28;20670;-80
2022/09/02 11:55:56;;;;;;;0.00;0.00;;;;;;;;;;4983192;28;20030;-80
2022/09/02 11:58:34;;;;;;;0.00;0.00;;;;;;;;;;4989548;28;20026;-80
2022/09/02 12:01:04;;;;;;;0.00;0.00;;;;;;;;;;4990193;28;20031;-82
2022/09/02 12:03:31;;;;;;;0.00;0.00;;;;;;;;;;5001427;28;20046;-80
2022/09/02 12:06:18;;;;;;;0.10;0.10;;;;;;;;;;4999008;28;20122;-81
2022/09/02 12:08:45;;;;;;;0.47;0.47;;;;;;;;;;4987493;28;20030;-80
2022/09/02 12:11:30;;;;;;;0.10;0.10;;;;;;;;;;5003844;28;20020;-79
2022/09/02 12:13:58;;;;;;;0.03;0.03;;;;;;;;;;4987630;28;20031;-80
2022/09/02 12:16:33;;;;;;;1.15;0.65;;;;;;;;;;5003203;28;20026;-79
2022/09/02 12:19:09;;;;;;;0.35;0.35;;;;;;;;;;4984301;28;20492;-79
2022/09/02 12:21:37;;;;;;;1.00;0.98;;;;;;;;;;4992841;28;20080;-80
2022/09/02 12:24:11;;;;;;;0.00;0.00;;;;;;;;;;4996398;28;20038;-80
2022/09/02 12:26:40;;;;;;;0.00;0.00;;;;;;;;;;4998832;28;20034;-80
2022/09/02 12:29:27;;;;;;;0.00;0.00;;;;;;;;;;4992295;28;20378;-79
2022/09/02 12:31:54;;;;;;;1.55;1.00;;;;;;;;;;4999700;28;20208;-80
2022/09/02 12:34:23;;;;;;;19.90;4.60;;;;;;;;;;5009096;28;20029;-79
2022/09/02 12:36:53;;;;;;;0.00;0.00;;;;;;;;;;4999817;28;20015;-80
2022/09/02 12:39:30;;;;;;;0.00;0.00;;;;;;;;;;5009888;28;20025;-80
2022/09/02 12:42:11;;;;;;;2.35;2.25;;;;;;;;;;4990499;28;20046;-79
2022/09/02 12:44:43;;;;;;;0.32;0.32;;;;;;;;;;5002843;28;20029;-79
2022/09/02 12:47:25;;;;;;;1.13;0.65;;;;;;;;;;4990910;28;20109;-79
2022/09/02 12:49:54;;;;;;;0.00;0.00;;;;;;;;;;4996419;28;20495;-79
2022/09/02 12:52:36;;;;;;;0.25;0.25;;;;;;;;;;4981302;28;20499;-79
2022/09/02 12:55:04;;;;;;;0.00;0.00;;;;;;;;;;5002744;28;20035;-79
2022/09/02 12:57:40;;;;;;;0.00;0.00;;;;;;;;;;5018272;28;20020;-80
2022/09/02 13:00:07;;;;;;;0.00;0.00;;;;;;;;;;5001147;28;20030;-80
2022/09/02 13:02:44;;;;;;;0.00;0.00;;;;;;;;;;4989432;28;20022;-78
2022/09/02 13:05:16;;;;;;;0.00;0.00;;;;;;;;;;4988895;28;20034;-79
2022/09/02 13:07:55;;;;;;;0.10;0.10;;;;;;;;;;5012582;28;20329;-78
2022/09/02 13:10:28;;;;;;;0.00;0.00;;;;;;;;;;4987811;28;20465;-79
2022/09/02 13:13:26;;;;;;;0.00;0.00;;;;;;;;;;4987935;28;20364;-80
2022/09/02 13:16:13;;;;;;;0.00;0.00;;;;;;;;;;4999617;28;20042;-79
2022/09/02 13:19:00;;;;;;;0.00;0.00;;;;;;;;;;4987487;28;20041;-80
2022/09/02 13:21:44;;;;;;;0.00;0.00;;;;;;;;;;4987395;28;20408;-79
2022/09/02 13:24:22;;;;;;;0.00;0.00;;;;;;;;;;4985890;28;20129;-79
2022/09/02 13:26:49;;;;;;;0.00;0.00;;;;;;;;;;4983288;28;20487;-81
2022/09/02 13:29:39;;;;;;;0.00;0.00;;;;;;;;;;4982716;28;20042;-78
2022/09/02 13:32:21;;;;;;;0.10;0.10;;;;;;;;;;4986979;28;20018;-80
2022/09/02 13:34:48;;;;;;;0.00;0.00;;;;;;;;;;4987180;28;20026;-78
2022/09/02 13:37:27;;;;;;;0.47;0.47;;;;;;;;;;4999606;28;20026;-80
2022/09/02 13:39:54;;;;;;;4.95;1.10;;;;;;;;;;5009270;28;20023;-80
2022/09/02 13:42:24;;;;;;;0.00;0.00;;;;;;;;;;5003059;28;20031;-80
2022/09/02 13:44:51;;;;;;;1.55;1.55;;;;;;;;;;4991763;28;20075;-78
2022/09/02 13:47:21;;;;;;;2.40;2.30;;;;;;;;;;4995592;28;20030;-79
2022/09/02 13:49:49;;;;;;;0.00;0.00;;;;;;;;;;5051635;28;20080;-79
2022/09/02 13:52:19;;;;;;;0.10;0.10;;;;;;;;;;5006175;28;20105;-79
2022/09/02 13:54:51;;;;;;;1.75;1.65;;;;;;;;;;4994769;28;20031;-80
2022/09/02 13:57:20;;;;;;;0.00;0.00;;;;;;;;;;5008591;28;20528;-79
2022/09/02 13:59:48;;;;;;;0.47;0.47;;;;;;;;;;5014394;28;20037;-80
2022/09/02 14:02:16;;;;;;;0.00;0.00;;;;;;;;;;4996337;28;20103;-79
2022/09/02 14:04:42;;;;;;;0.25;0.25;;;;;;;;;;4997561;28;20443;-80
2022/09/02 14:07:09;;;;;;;0.10;0.10;;;;;;;;;;5011941;28;20031;-80
2022/09/02 14:09:36;;;;;;;0.00;0.00;;;;;;;;;;5001108;28;20466;-80
2022/09/02 14:12:03;;;;;;;0.00;0.00;;;;;;;;;;4993433;28;20057;-80
2022/09/02 14:14:30;;;;;;;0.00;0.00;;;;;;;;;;5007895;28;20395;-79
2022/09/02 14:17:20;;;;;;;0.00;0.00;;;;;;;;;;5018115;28;20046;-79
2022/09/02 14:19:47;;;;;;;0.17;0.17;;;;;;;;;;5025855;28;20357;-79
2022/09/02 14:22:29;;;;;;;0.10;0.10;;;;;;;;;;5016667;28;20050;-80
2022/09/02 14:24:56;;;;;;;30.13;9.48;;;;;;;;;;4999119;28;20035;-79
2022/09/02 14:27:23;;;;;;;0.00;0.00;;;;;;;;;;5022593;28;20049;-80
2022/09/02 14:29:55;;;;;;;1.45;1.45;;;;;;;;;;4994048;28;20022;-80
2022/09/02 14:32:23;;;;;;;0.00;0.00;;;;;;;;;;5016444;28;20064;-80
2022/09/02 14:35:07;;;;;;;0.00;0.00;;;;;;;;;;5022673;28;20380;-80
2022/09/02 14:37:34;;;;;;;0.60;0.60;;;;;;;;;;5008552;28;20453;-80
2022/09/02 14:40:08;;;;;;;0.50;0.50;;;;;;;;;;5028159;28;20095;-80
2022/09/02 14:42:43;;;;;;;0.05;0.05;;;;;;;;;;5045540;28;20033;-80
2022/09/02 14:45:11;;;;;;;0.45;0.45;;;;;;;;;;5010112;28;20024;-81
2022/09/02 14:47:38;;;;;;;0.00;0.00;;;;;;;;;;5019031;28;20079;-80
2022/09/02 14:50:09;;;;;;;0.00;0.00;;;;;;;;;;4992781;28;20023;-80
2022/09/02 14:52:37;;;;;;;0.77;0.77;;;;;;;;;;4982454;28;20038;-79
2022/09/02 14:55:07;;;;;;;0.00;0.00;;;;;;;;;;4992393;28;20105;-78
2022/09/02 14:57:36;;;;;;;0.00;0.00;;;;;;;;;;4991292;28;20022;-78
2022/09/02 15:00:08;;;;;;;4.63;4.22;;;;;;;;;;5009637;28;20028;-78
2022/09/02 15:02:35;;;;;;;0.00;0.00;;;;;;;;;;4990633;28;20535;-78